createdAt,value
2022-12-09T00:01:23.739Z,-2.60
2022-12-09T00:11:26.225Z,-2.70
2022-12-09T00:21:31.579Z,-2.70
2022-12-09T00:31:35.559Z,-2.70
2022-12-09T00:41:38.976Z,-2.70
2022-12-09T00:51:41.165Z,-2.70
2022-12-09T01:01:44.578Z,-2.80
2022-12-09T01:11:46.597Z,-2.90
2022-12-09T01:21:49.847Z,-2.70
2022-12-09T01:31:53.750Z,-2.40
2022-12-09T01:41:57.192Z,-2.40
2022-12-09T01:52:04.696Z,-2.50
2022-12-09T02:02:13.745Z,-2.60
2022-12-09T02:12:27.949Z,-2.70
2022-12-09T02:22:35.289Z,-2.80
2022-12-09T02:33:00.524Z,-2.80
2022-12-09T02:43:06.711Z,-2.80
2022-12-09T02:53:11.888Z,-2.90
2022-12-09T03:03:17.607Z,-3.00
2022-12-09T03:13:31.566Z,-2.70
2022-12-09T03:23:36.962Z,-2.40
2022-12-09T03:33:41.298Z,-2.20
2022-12-09T03:43:50.708Z,-2.00
2022-12-09T03:54:00.652Z,-1.80
2022-12-09T04:04:04.275Z,-1.50
2022-12-09T04:14:10.400Z,-1.30
2022-12-09T04:24:17.352Z,-1.10
2022-12-09T04:34:19.343Z,-1.00
2022-12-09T04:44:22.764Z,-0.80
2022-12-09T04:54:24.815Z,-0.50
2022-12-09T05:04:28.245Z,-0.40
2022-12-09T05:14:30.793Z,-0.30
2022-12-09T05:24:34.392Z,-0.20
2022-12-09T05:34:36.680Z,-0.10
2022-12-09T05:44:40.160Z,0.10
2022-12-09T05:54:42.452Z,0.30
2022-12-09T06:04:46.328Z,0.30
2022-12-09T06:14:48.799Z,0.30
2022-12-09T06:25:06.991Z,0.40
2022-12-09T06:35:09.957Z,0.40
2022-12-09T06:45:14.365Z,0.30
2022-12-09T06:55:16.891Z,0.50
2022-12-09T07:05:20.640Z,0.60
2022-12-09T07:15:22.938Z,0.60
2022-12-09T07:25:26.288Z,0.60
2022-12-09T07:35:28.423Z,0.70
2022-12-09T07:45:34.215Z,0.70
2022-12-09T07:55:36.758Z,0.80
2022-12-09T08:05:46.995Z,0.80
2022-12-09T08:15:49.417Z,0.90
2022-12-09T08:25:54.521Z,0.90
2022-12-09T08:35:56.995Z,0.90
2022-12-09T08:46:01.100Z,1.00
2022-12-09T08:56:20.115Z,1.20
2022-12-09T09:06:24.066Z,1.10
2022-12-09T09:16:27.552Z,1.30
2022-12-09T09:26:31.196Z,1.40
2022-12-09T09:36:33.549Z,1.40
2022-12-09T09:46:40.982Z,1.50
2022-12-09T09:56:50.581Z,1.70
2022-12-09T10:07:06.896Z,1.80
2022-12-09T10:17:21.486Z,2.00
2022-12-09T10:27:30.692Z,2.10
2022-12-09T10:37:35.367Z,2.20
2022-12-09T10:47:39.472Z,2.40
2022-12-09T10:57:41.950Z,2.40
2022-12-09T11:07:49.386Z,2.40
2022-12-09T11:17:57.877Z,2.50
2022-12-09T11:28:04.733Z,2.70
2022-12-09T11:38:21.465Z,2.70
2022-12-09T11:48:34.985Z,2.80
2022-12-09T11:58:44.706Z,3.20
2022-12-09T12:08:54.720Z,3.40
2022-12-09T12:19:05.162Z,3.20
2022-12-09T12:29:21.603Z,3.30
2022-12-09T12:39:39.867Z,3.20
2022-12-09T12:50:01.151Z,3.40
2022-12-09T13:00:09.119Z,3.70
2022-12-09T13:10:22.312Z,3.90
2022-12-09T13:20:28.351Z,4.30
2022-12-09T13:30:36.587Z,4.80
2022-12-09T13:40:39.204Z,4.40
2022-12-09T13:50:53.235Z,4.40
2022-12-09T14:01:16.116Z,4.20
2022-12-09T14:11:42.322Z,4.30
2022-12-09T14:22:04.359Z,4.20
2022-12-09T14:32:19.588Z,4.00
2022-12-09T14:42:35.036Z,4.00
2022-12-09T14:52:48.857Z,3.90
2022-12-09T15:03:23.001Z,3.80
2022-12-09T15:13:20.198Z,3.80
2022-12-09T15:23:32.648Z,3.60
2022-12-09T15:33:42.265Z,3.30
2022-12-09T15:43:48.479Z,3.00
2022-12-09T15:53:57.890Z,2.70
2022-12-09T16:04:01.938Z,2.40
2022-12-09T16:14:06.504Z,2.10
2022-12-09T16:24:13.005Z,2.10
2022-12-09T16:34:23.019Z,1.70
2022-12-09T16:44:29.862Z,1.50
2022-12-09T16:54:33.363Z,1.30
2022-12-09T17:04:35.368Z,1.10
2022-12-09T17:14:38.840Z,0.80
2022-12-09T17:24:40.897Z,0.70
2022-12-09T17:34:44.196Z,0.70
2022-12-09T17:44:46.122Z,0.70
2022-12-09T17:54:49.397Z,0.60
2022-12-09T18:04:51.359Z,0.50
2022-12-09T18:14:54.638Z,0.50
2022-12-09T18:24:56.556Z,0.40
2022-12-09T18:34:59.881Z,0.30
2022-12-09T18:45:02.063Z,0.20
2022-12-09T18:55:06.402Z,0.00
2022-12-09T19:05:08.660Z,0.00
2022-12-09T19:15:12.391Z,-0.10
2022-12-09T19:25:14.387Z,-0.10
2022-12-09T19:35:17.896Z,-0.10
2022-12-09T19:45:19.866Z,-0.30
2022-12-09T19:55:23.185Z,-0.40
2022-12-09T20:05:25.386Z,-0.40
2022-12-09T20:15:28.658Z,-0.50
2022-12-09T20:25:32.335Z,-0.60
2022-12-09T20:35:37.527Z,-0.50
2022-12-09T20:45:39.487Z,-0.60
2022-12-09T20:55:42.835Z,-0.60
2022-12-09T21:05:44.776Z,-0.80
2022-12-09T21:15:48.069Z,-0.90
2022-12-09T21:25:50.015Z,-1.00
2022-12-09T21:35:53.307Z,-1.10
2022-12-09T21:45:55.378Z,-1.20
2022-12-09T21:56:03.040Z,-1.30
2022-12-09T22:06:05.458Z,-1.30
2022-12-09T22:16:10.092Z,-1.40
2022-12-09T22:26:14.030Z,-1.50
2022-12-09T22:36:17.712Z,-1.50
2022-12-09T22:46:21.512Z,-1.60
2022-12-09T22:56:25.498Z,-1.60
2022-12-09T23:06:28.740Z,-1.70
2022-12-09T23:16:32.181Z,-1.70
2022-12-09T23:26:36.934Z,-1.90
2022-12-09T23:36:42.685Z,-2.00
2022-12-09T23:46:45.208Z,-1.90
2022-12-09T23:56:48.658Z,-1.90
